createdAt,value
2017-12-31T00:01:44.457Z,9.60
2017-12-31T00:04:12.712Z,9.70
2017-12-31T00:06:41.528Z,9.60
2017-12-31T00:09:13.048Z,9.60
2017-12-31T00:11:41.844Z,9.60
2017-12-31T00:14:10.659Z,9.60
2017-12-31T00:16:38.593Z,9.60
2017-12-31T00:19:06.735Z,9.60
2017-12-31T00:21:34.937Z,9.60
2017-12-31T00:24:04.488Z,9.50
2017-12-31T00:26:33.328Z,9.50
2017-12-31T00:29:02.291Z,9.50
2017-12-31T00:31:30.328Z,9.50
2017-12-31T00:34:00.110Z,9.50
2017-12-31T00:43:11.293Z,9.30
2017-12-31T00:45:40.217Z,9.30
2017-12-31T00:48:08.292Z,9.30
2017-12-31T00:50:36.236Z,9.30
2017-12-31T00:53:04.325Z,9.30
2017-12-31T00:55:34.365Z,9.30
2017-12-31T00:58:03.573Z,9.30
2017-12-31T01:00:31.786Z,9.20
2017-12-31T01:03:00.778Z,9.30
2017-12-31T01:05:29.399Z,9.30
2017-12-31T01:07:58.014Z,9.30
2017-12-31T01:10:27.096Z,9.30
2017-12-31T01:12:56.397Z,9.30
2017-12-31T01:15:25.795Z,9.30
2017-12-31T01:17:53.742Z,9.30
2017-12-31T01:20:21.755Z,9.20
2017-12-31T01:22:50.442Z,9.20
2017-12-31T01:25:21.596Z,9.20
2017-12-31T01:27:54.153Z,9.20
2017-12-31T01:30:22.781Z,9.20
2017-12-31T01:32:53.482Z,9.20
2017-12-31T01:35:23.462Z,9.10
2017-12-31T01:37:51.454Z,9.10
2017-12-31T01:40:29.008Z,9.00
2017-12-31T01:43:02.431Z,9.00
2017-12-31T01:45:30.476Z,9.10
2017-12-31T01:48:02.371Z,9.00
2017-12-31T01:50:32.089Z,9.00
2017-12-31T01:53:00.201Z,9.00
2017-12-31T01:55:28.279Z,9.00
2017-12-31T01:57:56.908Z,8.90
2017-12-31T02:00:25.292Z,8.90
2017-12-31T02:02:59.655Z,8.90
2017-12-31T02:05:30.569Z,9.00
2017-12-31T02:08:13.195Z,8.90
2017-12-31T02:10:49.044Z,8.90
2017-12-31T02:13:21.231Z,8.90
2017-12-31T02:15:50.516Z,8.90
2017-12-31T02:18:20.704Z,8.90
2017-12-31T02:20:48.889Z,8.90
2017-12-31T02:23:16.948Z,8.80
2017-12-31T02:25:45.009Z,8.80
2017-12-31T02:28:14.680Z,8.80
2017-12-31T02:30:42.768Z,8.80
2017-12-31T02:33:13.423Z,8.70
2017-12-31T02:35:41.484Z,8.70
2017-12-31T02:38:10.568Z,8.70
2017-12-31T02:40:39.421Z,8.60
2017-12-31T02:43:14.461Z,8.60
2017-12-31T02:45:43.229Z,8.60
2017-12-31T02:48:11.617Z,8.60
2017-12-31T02:50:39.897Z,8.60
2017-12-31T02:53:07.875Z,8.50
2017-12-31T02:55:36.062Z,8.50
2017-12-31T02:58:07.300Z,8.50
2017-12-31T03:00:36.307Z,8.50
2017-12-31T03:03:04.932Z,8.50
2017-12-31T03:05:33.601Z,8.50
2017-12-31T03:08:03.052Z,8.50
2017-12-31T03:10:31.111Z,8.50
2017-12-31T03:12:59.425Z,8.50
2017-12-31T03:15:27.425Z,8.50
2017-12-31T03:17:58.068Z,8.50
2017-12-31T03:20:28.728Z,8.50
2017-12-31T03:22:56.742Z,8.50
2017-12-31T03:25:35.466Z,8.50
2017-12-31T03:28:04.074Z,8.50
2017-12-31T03:30:31.940Z,8.50
2017-12-31T03:32:59.825Z,8.50
2017-12-31T03:35:28.560Z,8.50
2017-12-31T03:37:56.525Z,8.50
2017-12-31T03:40:24.564Z,8.50
2017-12-31T03:42:53.280Z,8.50
2017-12-31T03:45:21.183Z,8.50
2017-12-31T03:47:49.228Z,8.50
2017-12-31T03:50:17.423Z,8.60
2017-12-31T03:54:05.248Z,8.60
2017-12-31T03:56:54.931Z,8.60
2017-12-31T03:59:24.074Z,8.60
2017-12-31T04:01:52.194Z,8.60
2017-12-31T04:04:20.069Z,8.60
2017-12-31T04:06:48.842Z,8.50
2017-12-31T04:09:16.882Z,8.50
2017-12-31T04:11:45.928Z,8.50
2017-12-31T04:14:13.877Z,8.50
2017-12-31T04:16:41.739Z,8.50
2017-12-31T04:19:09.765Z,8.50
2017-12-31T04:21:37.763Z,8.50
2017-12-31T04:24:06.170Z,8.60
2017-12-31T04:26:34.269Z,8.60
2017-12-31T04:29:03.178Z,8.70
2017-12-31T04:31:31.806Z,8.70
2017-12-31T04:33:59.991Z,8.70
2017-12-31T04:36:28.015Z,8.80
2017-12-31T04:38:56.232Z,9.10
2017-12-31T04:41:24.053Z,9.30
2017-12-31T04:46:27.747Z,9.90
2017-12-31T04:48:55.690Z,10.00
2017-12-31T04:51:23.870Z,10.10
2017-12-31T04:53:51.867Z,10.10
2017-12-31T04:56:19.790Z,10.10
2017-12-31T04:58:47.714Z,10.20
2017-12-31T05:01:15.798Z,10.20
2017-12-31T05:03:43.741Z,10.20
2017-12-31T05:06:11.913Z,10.20
2017-12-31T05:08:39.889Z,10.20
2017-12-31T05:11:34.098Z,10.20
2017-12-31T05:14:02.008Z,10.30
2017-12-31T05:16:29.932Z,10.30
2017-12-31T05:18:57.932Z,10.20
2017-12-31T05:21:26.100Z,10.30
2017-12-31T05:23:54.968Z,10.40
2017-12-31T05:26:23.060Z,10.40
2017-12-31T05:28:51.983Z,10.40
2017-12-31T05:31:19.881Z,10.40
2017-12-31T05:33:47.882Z,10.40
2017-12-31T05:36:15.722Z,10.40
2017-12-31T05:38:43.619Z,10.40
2017-12-31T05:41:11.537Z,10.50
2017-12-31T05:43:39.804Z,10.50
2017-12-31T05:46:07.906Z,10.50
2017-12-31T05:48:36.763Z,10.50
2017-12-31T05:51:05.084Z,10.50
2017-12-31T05:53:33.008Z,10.50
2017-12-31T05:56:00.877Z,10.50
2017-12-31T05:58:29.486Z,10.50
2017-12-31T06:00:57.401Z,10.50
2017-12-31T06:03:25.338Z,10.50
2017-12-31T06:05:53.371Z,10.50
2017-12-31T06:08:21.372Z,10.50
2017-12-31T06:10:49.252Z,10.60
2017-12-31T06:13:17.199Z,10.60
2017-12-31T06:15:47.180Z,10.60
2017-12-31T06:18:15.852Z,10.50
2017-12-31T06:20:44.091Z,10.50
2017-12-31T06:23:12.209Z,10.60
2017-12-31T06:25:40.309Z,10.60
2017-12-31T06:28:08.362Z,10.70
2017-12-31T06:30:36.357Z,10.70
2017-12-31T06:33:04.478Z,10.70
2017-12-31T06:35:33.175Z,10.70
2017-12-31T06:38:01.029Z,10.70
2017-12-31T06:40:29.699Z,10.60
2017-12-31T06:43:02.973Z,10.60
2017-12-31T06:45:31.644Z,10.60
2017-12-31T06:48:01.576Z,10.70
2017-12-31T06:50:30.304Z,10.70
2017-12-31T06:52:58.152Z,10.70
2017-12-31T06:55:27.930Z,10.60
2017-12-31T06:57:56.336Z,10.70
2017-12-31T07:00:24.455Z,10.60
2017-12-31T07:02:52.536Z,10.60
2017-12-31T07:05:20.505Z,10.70
2017-12-31T07:07:48.322Z,10.60
2017-12-31T07:10:16.160Z,10.60
2017-12-31T07:12:44.823Z,10.70
2017-12-31T07:15:13.486Z,10.70
2017-12-31T07:17:41.422Z,10.70
2017-12-31T07:20:10.006Z,10.70
2017-12-31T07:22:37.877Z,10.70
2017-12-31T07:25:07.312Z,10.60
2017-12-31T07:27:35.293Z,10.60
2017-12-31T07:30:03.296Z,10.60
2017-12-31T07:32:31.212Z,10.70
2017-12-31T07:34:59.083Z,10.70
2017-12-31T07:37:27.977Z,10.60
2017-12-31T07:39:56.396Z,10.60
2017-12-31T07:42:24.338Z,10.60
2017-12-31T07:44:52.225Z,10.60
2017-12-31T07:47:21.050Z,10.70
2017-12-31T07:49:49.061Z,10.70
2017-12-31T07:52:17.145Z,10.70
2017-12-31T07:54:45.341Z,10.70
2017-12-31T07:57:31.337Z,10.70
2017-12-31T07:59:59.277Z,10.70
2017-12-31T08:02:27.276Z,10.70
2017-12-31T08:04:56.120Z,10.60
2017-12-31T08:07:24.087Z,10.60
2017-12-31T08:09:52.055Z,10.70
2017-12-31T08:15:02.072Z,10.70
2017-12-31T08:17:30.761Z,10.60
2017-12-31T08:19:58.671Z,10.60
2017-12-31T08:22:27.992Z,10.70
2017-12-31T08:25:00.351Z,10.70
2017-12-31T08:27:29.009Z,10.80
2017-12-31T08:29:57.718Z,10.70
2017-12-31T08:32:29.766Z,10.80
2017-12-31T08:34:59.798Z,10.80
2017-12-31T08:37:28.064Z,10.70
2017-12-31T08:39:56.819Z,10.80
2017-12-31T08:42:24.780Z,10.80
2017-12-31T08:45:05.595Z,10.80
2017-12-31T08:47:33.716Z,10.80
2017-12-31T08:50:01.669Z,10.90
2017-12-31T08:52:30.458Z,10.80
2017-12-31T08:54:59.542Z,10.80
2017-12-31T08:57:27.975Z,10.90
2017-12-31T08:59:56.825Z,10.90
2017-12-31T09:02:24.915Z,10.90
2017-12-31T09:04:55.156Z,11.00
2017-12-31T09:07:23.066Z,11.00
2017-12-31T09:09:51.117Z,11.00
2017-12-31T09:12:19.914Z,11.00
2017-12-31T09:14:48.659Z,11.00
2017-12-31T09:17:18.156Z,11.00
2017-12-31T09:19:47.161Z,11.00
2017-12-31T09:22:15.362Z,11.00
2017-12-31T09:24:43.704Z,11.00
2017-12-31T09:27:18.441Z,11.10
2017-12-31T09:29:46.531Z,11.10
2017-12-31T09:32:44.032Z,11.10
2017-12-31T09:35:12.204Z,11.10
2017-12-31T09:37:46.676Z,11.10
2017-12-31T09:40:14.693Z,11.20
2017-12-31T09:42:42.898Z,11.20
2017-12-31T09:47:50.554Z,11.20
2017-12-31T09:50:18.678Z,11.30
2017-12-31T09:52:47.009Z,11.30
2017-12-31T09:55:15.114Z,11.30
2017-12-31T09:57:44.108Z,11.20
2017-12-31T10:00:12.335Z,11.20
2017-12-31T10:02:40.645Z,11.20
2017-12-31T10:05:08.810Z,11.30
2017-12-31T10:07:39.034Z,11.40
2017-12-31T10:10:07.126Z,11.60
2017-12-31T10:12:35.248Z,11.60
2017-12-31T10:15:04.138Z,11.80
2017-12-31T10:17:32.474Z,11.80
2017-12-31T10:20:02.750Z,11.80
2017-12-31T10:22:31.036Z,11.60
2017-12-31T10:24:59.298Z,11.60
2017-12-31T10:27:27.553Z,11.70
2017-12-31T10:29:55.563Z,11.60
2017-12-31T10:32:23.433Z,11.70
2017-12-31T10:34:51.543Z,11.70
2017-12-31T10:37:26.030Z,11.60
2017-12-31T10:39:58.713Z,11.60
2017-12-31T10:42:27.937Z,11.50
2017-12-31T10:44:56.316Z,11.50
2017-12-31T10:47:24.492Z,11.50
2017-12-31T10:49:53.456Z,11.40
2017-12-31T10:52:26.236Z,11.40
2017-12-31T10:54:54.512Z,11.40
2017-12-31T10:57:22.894Z,11.40
2017-12-31T10:59:55.996Z,11.30
2017-12-31T11:02:23.932Z,11.30
2017-12-31T11:04:51.922Z,11.20
2017-12-31T11:07:19.939Z,11.20
2017-12-31T11:09:48.154Z,11.20
2017-12-31T11:12:19.450Z,11.30
2017-12-31T11:14:48.007Z,11.20
2017-12-31T11:17:16.725Z,11.30
2017-12-31T11:19:44.798Z,11.30
2017-12-31T11:22:12.670Z,11.30
2017-12-31T11:24:40.935Z,11.30
2017-12-31T11:27:10.417Z,11.20
2017-12-31T11:29:41.992Z,11.20
2017-12-31T11:32:10.630Z,11.20
2017-12-31T11:34:38.841Z,11.30
2017-12-31T11:37:07.081Z,11.20
2017-12-31T11:39:36.083Z,10.80
2017-12-31T11:42:42.537Z,10.60
2017-12-31T11:45:10.715Z,10.60
2017-12-31T11:47:44.307Z,10.60
2017-12-31T11:50:12.410Z,10.60
2017-12-31T11:52:48.358Z,10.60
2017-12-31T11:55:18.046Z,10.70
2017-12-31T11:57:49.136Z,10.80
2017-12-31T12:00:20.371Z,10.70
2017-12-31T12:02:49.008Z,10.70
2017-12-31T12:05:19.194Z,10.70
2017-12-31T12:07:47.304Z,10.70
2017-12-31T12:10:15.641Z,10.70
2017-12-31T12:12:44.797Z,10.80
2017-12-31T12:15:13.991Z,10.90
2017-12-31T12:17:44.215Z,10.90
2017-12-31T12:20:15.362Z,10.90
2017-12-31T12:22:46.712Z,11.00
2017-12-31T12:25:15.745Z,11.00
2017-12-31T12:27:50.631Z,11.10
2017-12-31T12:30:18.708Z,11.10
2017-12-31T12:32:48.505Z,11.20
2017-12-31T12:35:17.898Z,11.20
2017-12-31T12:37:47.602Z,11.30
2017-12-31T12:40:16.211Z,11.30
2017-12-31T12:42:45.205Z,11.40
2017-12-31T12:45:13.554Z,11.40
2017-12-31T12:47:41.486Z,11.40
2017-12-31T12:50:11.635Z,11.40
2017-12-31T12:52:40.400Z,11.40
2017-12-31T12:55:11.739Z,11.40
2017-12-31T12:57:40.789Z,11.40
2017-12-31T13:00:16.128Z,11.40
2017-12-31T13:02:44.781Z,11.40
2017-12-31T13:05:14.400Z,11.40
2017-12-31T13:08:02.454Z,11.40
2017-12-31T13:10:31.796Z,11.30
2017-12-31T13:13:01.574Z,11.30
2017-12-31T13:15:29.940Z,11.40
2017-12-31T13:18:09.224Z,11.40
2017-12-31T13:20:39.263Z,11.30
2017-12-31T13:23:10.618Z,11.20
2017-12-31T13:25:45.692Z,11.30
2017-12-31T13:28:13.996Z,11.20
2017-12-31T13:30:42.176Z,11.20
2017-12-31T13:33:10.381Z,11.30
2017-12-31T13:35:41.184Z,11.20
2017-12-31T13:38:09.537Z,11.20
2017-12-31T13:40:41.292Z,11.10
2017-12-31T13:43:09.445Z,11.10
2017-12-31T13:45:37.595Z,11.10
2017-12-31T13:48:13.456Z,11.20
2017-12-31T13:50:42.261Z,11.20
2017-12-31T13:53:11.080Z,11.20
2017-12-31T13:55:41.395Z,11.20
2017-12-31T13:58:18.536Z,11.20
2017-12-31T14:00:47.290Z,11.20
2017-12-31T14:03:16.681Z,11.30
2017-12-31T14:05:46.204Z,11.20
2017-12-31T14:08:14.334Z,11.20
2017-12-31T14:12:11.936Z,11.20
2017-12-31T14:14:39.891Z,11.20
2017-12-31T14:17:22.663Z,11.20
2017-12-31T14:19:54.994Z,11.30
2017-12-31T14:22:24.925Z,11.20
2017-12-31T14:24:53.731Z,11.30
2017-12-31T14:27:21.850Z,11.20
2017-12-31T14:29:50.527Z,11.30
2017-12-31T14:32:23.176Z,11.30
2017-12-31T14:34:52.317Z,11.40
2017-12-31T14:37:21.244Z,11.40
2017-12-31T14:39:49.408Z,11.40
2017-12-31T14:42:17.528Z,11.40
2017-12-31T14:44:45.745Z,11.40
2017-12-31T14:47:13.698Z,11.30
2017-12-31T14:49:43.016Z,11.40
2017-12-31T14:52:39.968Z,11.30
2017-12-31T14:55:09.405Z,11.30
2017-12-31T15:01:23.916Z,11.30
2017-12-31T15:03:53.038Z,11.30
2017-12-31T15:06:24.428Z,11.20
2017-12-31T15:08:53.733Z,11.20
2017-12-31T15:11:22.886Z,11.30
2017-12-31T15:13:54.823Z,11.20
2017-12-31T15:16:23.304Z,11.30
2017-12-31T15:18:53.251Z,11.30
2017-12-31T15:21:21.388Z,11.20
2017-12-31T15:23:51.122Z,11.20
2017-12-31T15:26:23.560Z,11.10
2017-12-31T15:28:52.045Z,11.10
2017-12-31T15:31:38.320Z,11.10
2017-12-31T15:34:07.571Z,11.10
2017-12-31T15:36:37.100Z,11.00
2017-12-31T15:39:06.065Z,11.00
2017-12-31T15:41:35.002Z,11.00
2017-12-31T15:44:05.428Z,11.10
2017-12-31T15:46:33.920Z,11.10
2017-12-31T15:49:05.641Z,11.10
2017-12-31T15:51:33.581Z,11.10
2017-12-31T15:54:11.043Z,11.10
2017-12-31T15:56:39.111Z,11.10
2017-12-31T15:59:08.037Z,11.10
2017-12-31T16:01:36.070Z,11.00
2017-12-31T16:04:07.289Z,11.10
2017-12-31T16:06:37.836Z,11.10
2017-12-31T16:09:07.052Z,11.20
2017-12-31T16:11:36.428Z,11.10
2017-12-31T16:14:05.312Z,11.30
2017-12-31T16:16:37.280Z,11.30
2017-12-31T16:19:05.339Z,11.30
2017-12-31T16:21:34.307Z,11.20
2017-12-31T16:24:05.919Z,11.20
2017-12-31T16:26:34.924Z,11.20
2017-12-31T16:29:12.688Z,11.20
2017-12-31T16:31:41.309Z,11.00
2017-12-31T16:34:09.849Z,11.00
2017-12-31T16:36:37.828Z,11.00
2017-12-31T16:39:05.908Z,11.00
2017-12-31T16:41:35.877Z,11.00
2017-12-31T16:44:04.767Z,11.00
2017-12-31T16:46:38.249Z,11.00
2017-12-31T16:49:06.484Z,11.10
2017-12-31T16:51:35.465Z,11.00
2017-12-31T16:54:05.724Z,11.00
2017-12-31T16:56:34.709Z,11.10
2017-12-31T16:59:02.768Z,11.00
2017-12-31T17:01:32.068Z,11.10
2017-12-31T17:04:00.948Z,11.10
2017-12-31T17:06:28.920Z,11.10
2017-12-31T17:08:57.387Z,11.10
2017-12-31T17:11:26.951Z,11.10
2017-12-31T17:14:07.732Z,11.10
2017-12-31T17:16:36.890Z,11.20
2017-12-31T17:19:04.975Z,11.20
2017-12-31T17:21:36.429Z,11.20
2017-12-31T17:24:04.259Z,11.20
2017-12-31T17:26:32.798Z,11.20
2017-12-31T17:29:46.693Z,11.20
2017-12-31T17:32:14.734Z,11.20
2017-12-31T17:34:44.656Z,11.20
2017-12-31T17:37:12.528Z,11.20
2017-12-31T17:39:42.553Z,11.20
2017-12-31T17:42:10.674Z,11.10
2017-12-31T17:44:38.703Z,11.10
2017-12-31T17:47:15.505Z,11.10
2017-12-31T17:49:44.673Z,11.20
2017-12-31T17:52:12.844Z,11.10
2017-12-31T17:54:41.605Z,11.20
2017-12-31T17:57:09.755Z,11.20
2017-12-31T17:59:37.667Z,11.30
2017-12-31T18:02:06.622Z,11.30
2017-12-31T18:04:34.993Z,11.20
2017-12-31T18:07:02.946Z,11.30
2017-12-31T18:09:31.244Z,11.20
2017-12-31T18:11:59.241Z,11.20
2017-12-31T18:14:27.311Z,11.10
2017-12-31T18:17:03.980Z,11.10
2017-12-31T18:19:31.841Z,11.00
2017-12-31T18:22:08.393Z,11.00
2017-12-31T18:24:36.395Z,11.00
2017-12-31T18:27:08.084Z,11.00
2017-12-31T18:29:36.816Z,11.00
2017-12-31T18:32:05.735Z,11.00
2017-12-31T18:34:33.695Z,10.90
2017-12-31T18:37:01.773Z,10.90
2017-12-31T18:39:29.691Z,10.90
2017-12-31T18:41:57.658Z,10.90
2017-12-31T18:44:26.396Z,11.00
2017-12-31T18:46:55.407Z,11.00
2017-12-31T18:49:24.220Z,11.10
2017-12-31T18:51:52.248Z,11.10
2017-12-31T18:54:20.956Z,11.10
2017-12-31T18:56:50.424Z,10.90
2017-12-31T18:59:18.535Z,10.90
2017-12-31T19:01:50.418Z,10.90
2017-12-31T19:04:18.998Z,10.90
2017-12-31T19:06:48.733Z,10.90
2017-12-31T19:09:17.824Z,10.90
2017-12-31T19:11:46.074Z,11.00
2017-12-31T19:14:14.194Z,10.90
2017-12-31T19:16:42.560Z,10.90
2017-12-31T19:19:11.730Z,10.80
2017-12-31T19:21:40.554Z,10.70
2017-12-31T19:24:10.040Z,10.80
2017-12-31T19:26:38.172Z,10.80
2017-12-31T19:29:06.304Z,10.70
2017-12-31T19:31:34.279Z,10.70
2017-12-31T19:34:02.341Z,10.70
2017-12-31T19:36:31.032Z,10.60
2017-12-31T19:39:00.817Z,10.50
2017-12-31T19:41:29.573Z,10.50
2017-12-31T19:43:57.746Z,10.50
2017-12-31T19:46:25.926Z,10.50
2017-12-31T19:48:53.949Z,10.50
2017-12-31T19:51:22.215Z,10.50
2017-12-31T19:53:50.426Z,10.50
2017-12-31T19:56:19.105Z,10.60
2017-12-31T19:58:47.180Z,10.50
2017-12-31T20:01:16.191Z,10.50
2017-12-31T20:03:44.932Z,10.60
2017-12-31T20:06:28.558Z,10.60
2017-12-31T20:08:56.750Z,10.50
2017-12-31T20:11:26.089Z,10.60
2017-12-31T20:13:54.418Z,10.60
2017-12-31T20:16:22.890Z,10.50
2017-12-31T20:18:52.037Z,10.50
2017-12-31T20:21:20.337Z,10.60
2017-12-31T20:23:48.432Z,10.70
2017-12-31T20:26:18.559Z,10.70
2017-12-31T20:28:47.899Z,10.70
2017-12-31T20:31:18.073Z,10.70
2017-12-31T20:33:48.376Z,10.80
2017-12-31T20:36:19.124Z,10.80
2017-12-31T20:38:47.447Z,10.80
2017-12-31T20:41:16.293Z,10.80
2017-12-31T20:43:44.208Z,10.80
2017-12-31T20:46:15.072Z,10.90
2017-12-31T20:48:44.019Z,10.90
2017-12-31T20:51:12.158Z,10.80
2017-12-31T20:53:43.856Z,10.90
2017-12-31T20:56:11.866Z,10.80
2017-12-31T20:58:44.531Z,10.90
2017-12-31T21:01:14.970Z,10.90
2017-12-31T21:03:45.163Z,10.80
2017-12-31T21:06:18.821Z,10.90
2017-12-31T21:08:51.255Z,10.80
2017-12-31T21:11:21.939Z,10.90
2017-12-31T21:13:51.992Z,10.80
2017-12-31T21:16:20.100Z,10.90
2017-12-31T21:18:52.054Z,10.90
2017-12-31T21:21:20.463Z,11.00
2017-12-31T21:23:48.902Z,11.00
2017-12-31T21:26:19.947Z,10.90
2017-12-31T21:28:48.361Z,10.90
2017-12-31T21:31:16.233Z,10.90
2017-12-31T21:33:45.925Z,10.80
2017-12-31T21:36:13.988Z,10.90
2017-12-31T21:38:42.897Z,10.90
2017-12-31T21:41:10.826Z,10.90
2017-12-31T21:43:39.063Z,10.90
2017-12-31T21:46:15.191Z,10.90
2017-12-31T21:48:44.050Z,10.90
2017-12-31T21:51:14.016Z,10.80
2017-12-31T21:53:42.644Z,10.80
2017-12-31T21:56:10.506Z,10.80
2017-12-31T21:58:40.765Z,10.90
2017-12-31T22:01:08.867Z,10.80
2017-12-31T22:03:37.000Z,10.90
2017-12-31T22:06:06.776Z,10.90
2017-12-31T22:08:34.958Z,10.90
2017-12-31T22:11:07.307Z,10.90
2017-12-31T22:13:35.341Z,10.90
2017-12-31T22:16:03.213Z,11.00
2017-12-31T22:18:32.032Z,11.20
2017-12-31T22:21:01.733Z,11.20
2017-12-31T22:23:34.929Z,11.40
2017-12-31T22:26:03.560Z,11.50
2017-12-31T22:28:39.000Z,11.50
2017-12-31T22:31:07.024Z,11.50
2017-12-31T22:33:38.012Z,11.60
2017-12-31T22:36:18.172Z,11.60
2017-12-31T22:38:47.779Z,11.50
2017-12-31T22:41:18.443Z,11.50
2017-12-31T22:43:48.650Z,11.50
2017-12-31T22:46:16.804Z,11.60
2017-12-31T22:48:48.763Z,11.60
2017-12-31T22:51:21.595Z,11.60
2017-12-31T22:53:49.666Z,11.70
2017-12-31T22:56:18.710Z,11.60
2017-12-31T22:58:47.273Z,11.60
2017-12-31T23:01:15.924Z,11.50
2017-12-31T23:03:44.409Z,11.50
2017-12-31T23:06:13.345Z,11.40
2017-12-31T23:08:41.677Z,11.30
2017-12-31T23:11:10.441Z,11.30
2017-12-31T23:16:35.136Z,11.20
2017-12-31T23:19:04.000Z,11.00
2017-12-31T23:21:32.825Z,10.60
2017-12-31T23:24:01.103Z,10.50
2017-12-31T23:26:33.388Z,10.50
2017-12-31T23:32:23.103Z,10.30
2017-12-31T23:34:51.584Z,10.20
2017-12-31T23:37:21.455Z,10.00
2017-12-31T23:40:11.816Z,10.00
2017-12-31T23:42:53.976Z,10.00
2017-12-31T23:48:51.553Z,10.00
2017-12-31T23:51:26.016Z,10.10
2017-12-31T23:54:00.930Z,10.20
2017-12-31T23:56:34.672Z,10.10
2017-12-31T23:59:02.715Z,10.10
